Time;durP1;ratioP1;P1;durP2;ratioP2;P2;SDS_P1;SDS_P2;PMS_P1;PMS_P2;Temp;Humidity;BMP_temperature;BMP_pressure;BME280_temperature;BME280_humidity;BME280_pressure;Samples;Min_cycle;Max_cycle;Signal;HPM_P1;HPM_P2
2022/01/02 00:00:08;;;;;;;140.60;30.67;;;;;;;6.17;100.00;100712.72;4933000;28;20054;-76
2022/01/02 00:02:34;;;;;;;146.82;29.52;;;;;;;6.23;100.00;100711.75;4946820;28;20657;-76
2022/01/02 00:05:07;;;;;;;182.38;36.95;;;;;;;6.29;100.00;100712.63;4944995;28;20126;-76
2022/01/02 00:07:35;;;;;;;163.43;30.95;;;;;;;6.34;100.00;100707.31;4957340;28;20373;-76
2022/01/02 00:10:03;;;;;;;145.85;30.02;;;;;;;6.36;100.00;100702.47;4944122;28;20492;-76
2022/01/02 00:12:29;;;;;;;164.05;31.92;;;;;;;6.40;100.00;100695.47;4953817;28;20122;-76
2022/01/02 00:14:55;;;;;;;176.82;32.65;;;;;;;6.41;100.00;100691.69;4933985;29;20023;-76
2022/01/02 00:17:23;;;;;;;239.07;40.63;;;;;;;6.44;100.00;100696.63;4949800;28;20113;-76
2022/01/02 00:19:53;;;;;;;246.25;39.47;;;;;;;6.46;100.00;100689.06;4946960;28;20054;-76
2022/01/02 00:22:27;;;;;;;302.67;47.03;;;;;;;6.46;100.00;100694.47;4948513;28;20039;-76
2022/01/02 00:24:53;;;;;;;397.38;52.22;;;;;;;6.46;100.00;100689.06;4931486;28;20428;-76
2022/01/02 00:27:18;;;;;;;422.98;53.20;;;;;;;6.44;100.00;100683.09;4931729;29;20035;-76
2022/01/02 00:29:44;;;;;;;444.60;56.33;;;;;;;6.44;100.00;100683.91;4921089;29;20025;-76
2022/01/02 00:32:11;;;;;;;567.70;68.90;;;;;;;6.45;100.00;100684.72;4928499;29;20039;-76
2022/01/02 00:34:37;;;;;;;633.30;79.82;;;;;;;6.45;100.00;100676.59;4931688;29;20023;-76
2022/01/02 00:37:03;;;;;;;618.72;74.07;;;;;;;6.43;100.00;100668.72;4934012;28;20055;-76
2022/01/02 00:39:29;;;;;;;656.53;82.85;;;;;;;6.45;100.00;100665.78;4920529;29;20070;-76
2022/01/02 00:41:56;;;;;;;537.65;67.53;;;;;;;6.47;100.00;100652.00;4939144;28;20027;-76
2022/01/02 00:44:31;;;;;;;589.05;73.65;;;;;;;6.46;100.00;100651.16;4928067;29;20120;-77
2022/01/02 00:47:26;;;;;;;651.58;80.90;;;;;;;6.44;100.00;100654.13;4914912;29;20032;-76
2022/01/02 00:50:06;;;;;;;725.85;85.70;;;;;;;6.38;100.00;100643.44;4916251;29;20047;-76
2022/01/02 00:52:39;;;;;;;749.85;89.75;;;;;;;6.31;100.00;100640.94;4945596;28;20495;-76
2022/01/02 00:55:07;;;;;;;836.33;106.50;;;;;;;6.29;100.00;100628.72;4930938;29;20026;-76
2022/01/02 00:57:37;;;;;;;727.97;88.68;;;;;;;6.30;100.00;100619.50;4929990;28;20133;-76
2022/01/02 01:00:06;;;;;;;720.78;93.30;;;;;;;6.32;100.00;100628.22;4912757;29;20034;-76
2022/01/02 01:02:33;;;;;;;798.78;104.40;;;;;;;6.33;100.00;100624.41;4929189;29;20535;-76
2022/01/02 01:05:01;;;;;;;747.75;92.03;;;;;;;6.33;100.00;100614.44;4929669;28;20488;-76
2022/01/02 01:07:27;;;;;;;654.83;82.15;;;;;;;6.34;100.00;100610.66;4944493;28;20042;-76
2022/01/02 01:09:53;;;;;;;696.05;87.38;;;;;;;6.33;100.00;100613.59;4913526;29;20090;-76
2022/01/02 01:12:19;;;;;;;677.15;86.15;;;;;;;6.36;100.00;100607.72;4928671;29;20054;-76
2022/01/02 01:14:46;;;;;;;676.22;82.05;;;;;;;6.36;100.00;100602.28;4943598;28;20059;-76
2022/01/02 01:17:13;;;;;;;733.50;90.05;;;;;;;6.35;100.00;100600.63;4944617;28;20555;-76
2022/01/02 01:19:39;;;;;;;667.30;82.15;;;;;;;6.34;100.00;100599.00;4900921;29;20076;-76
2022/01/02 01:22:04;;;;;;;794.42;109.93;;;;;;;6.31;100.00;100600.31;4945139;28;20476;-76
2022/01/02 01:24:30;;;;;;;767.55;93.97;;;;;;;6.29;100.00;100607.06;4938808;28;20131;-76
2022/01/02 01:26:56;;;;;;;712.17;84.50;;;;;;;6.25;100.00;100606.75;4947280;28;20027;-76
2022/01/02 01:29:22;;;;;;;769.83;95.43;;;;;;;6.23;100.00;100617.81;4938900;28;20056;-76
2022/01/02 01:31:47;;;;;;;787.63;97.45;;;;;;;6.18;100.00;100611.50;4926409;29;20101;-76
2022/01/02 01:34:13;;;;;;;769.05;94.95;;;;;;;6.16;100.00;100606.31;4950011;28;20027;-76
2022/01/02 01:36:38;;;;;;;707.08;89.13;;;;;;;6.15;100.00;100598.47;4939404;28;20043;-76
2022/01/02 01:39:03;;;;;;;704.30;91.07;;;;;;;6.16;100.00;100606.31;4936380;28;20817;-76
2022/01/02 01:41:32;;;;;;;666.17;83.50;;;;;;;6.17;100.00;100604.47;4945828;28;20027;-76
2022/01/02 01:46:33;;;;;;;684.80;81.22;;;;;;;6.18;100.00;100601.50;4929763;28;20496;-76
2022/01/02 01:48:58;;;;;;;748.17;92.22;;;;;;;6.17;100.00;100594.44;4928784;28;20038;-78
2022/01/02 01:51:24;;;;;;;715.60;88.60;;;;;;;6.16;100.00;100590.09;4939464;28;20324;-76
2022/01/02 01:53:49;;;;;;;764.10;95.30;;;;;;;6.14;100.00;100588.72;4908452;29;20384;-76
2022/01/02 01:56:15;;;;;;;774.38;89.15;;;;;;;6.11;100.00;100584.63;4936538;28;20488;-76
2022/01/02 01:58:40;;;;;;;718.90;84.43;;;;;;;6.07;100.00;100580.75;4945963;28;20039;-76
2022/01/02 02:01:06;;;;;;;692.80;82.00;;;;;;;6.03;100.00;100585.06;4931994;28;20031;-76
2022/01/02 02:03:31;;;;;;;672.85;79.95;;;;;;;5.99;100.00;100595.53;4940718;28;20035;-76
2022/01/02 02:05:57;;;;;;;784.55;97.22;;;;;;;5.97;100.00;100591.44;4929842;29;20042;-76
2022/01/02 02:08:26;;;;;;;689.58;79.43;;;;;;;5.94;100.00;100592.75;4945567;28;20039;-75
2022/01/02 02:10:56;;;;;;;607.35;70.10;;;;;;;5.94;100.00;100586.53;4929772;29;20420;-76
2022/01/02 02:13:21;;;;;;;761.63;88.90;;;;;;;5.92;100.00;100588.63;4929429;29;20117;-76
2022/01/02 02:15:47;;;;;;;632.53;73.78;;;;;;;5.90;100.00;100586.16;4921834;29;20034;-76
2022/01/02 02:18:12;;;;;;;670.85;80.82;;;;;;;5.97;100.00;100586.03;4929065;28;20047;-76
2022/01/02 02:20:38;;;;;;;702.83;85.40;;;;;;;6.04;100.00;100572.34;4928307;29;20034;-76
2022/01/02 02:23:03;;;;;;;766.70;90.93;;;;;;;6.09;100.00;100556.16;4929892;28;20039;-76
2022/01/02 02:25:33;;;;;;;763.63;95.18;;;;;;;6.07;100.00;100553.69;4945090;28;20506;-76
2022/01/02 02:27:59;;;;;;;726.30;88.13;;;;;;;6.06;100.00;100553.97;4928655;28;20023;-76
2022/01/02 02:30:26;;;;;;;727.75;86.57;;;;;;;6.03;100.00;100549.88;4935430;29;20081;-76
2022/01/02 02:32:53;;;;;;;688.75;80.55;;;;;;;6.01;100.00;100557.41;4929260;29;20480;-76
2022/01/02 02:35:19;;;;;;;770.10;88.10;;;;;;;6.00;100.00;100559.31;4927946;29;20038;-75
2022/01/02 02:37:45;;;;;;;745.00;93.65;;;;;;;6.02;100.00;100553.63;4929970;29;20500;-76
2022/01/02 02:40:11;;;;;;;820.30;98.22;;;;;;;6.06;100.00;100543.97;4929237;29;20596;-76
2022/01/02 02:42:46;;;;;;;832.40;104.97;;;;;;;6.15;100.00;100531.63;4942187;28;20034;-76
2022/01/02 02:50:48;;;;;;;782.08;94.90;;;;;;;6.25;100.00;100513.88;4944057;28;20097;-77
2022/01/02 02:53:16;;;;;;;735.67;83.15;;;;;;;6.22;100.00;100515.22;4945313;28;20038;-76
2022/01/02 02:55:46;;;;;;;721.40;82.47;;;;;;;6.20;100.00;100523.56;4945059;28;20035;-76
2022/01/02 03:00:55;;;;;;;668.70;78.78;;;;;;;6.13;100.00;100517.50;4944175;28;20028;-76
2022/01/02 03:03:21;;;;;;;790.58;89.35;;;;;;;6.12;100.00;100521.31;4943328;28;20392;-76
2022/01/02 03:05:46;;;;;;;760.20;91.82;;;;;;;6.11;100.00;100505.28;4913669;28;20428;-78
2022/01/02 03:08:11;;;;;;;790.08;93.05;;;;;;;6.12;100.00;100505.06;4941114;28;20046;-76
2022/01/02 03:10:37;;;;;;;752.15;84.18;;;;;;;6.15;100.00;100504.56;4945889;28;20027;-76
2022/01/02 03:13:02;;;;;;;684.22;83.47;;;;;;;6.17;100.00;100486.19;4942728;28;20030;-76
2022/01/02 03:15:28;;;;;;;722.83;86.90;;;;;;;6.20;100.00;100485.66;4943114;28;20039;-76
2022/01/02 03:17:53;;;;;;;740.00;89.90;;;;;;;6.22;100.00;100478.13;4934155;29;20058;-76
2022/01/02 03:20:18;;;;;;;793.35;95.60;;;;;;;6.24;100.00;100472.44;4945496;28;20030;-76
2022/01/02 03:22:44;;;;;;;748.30;91.80;;;;;;;6.29;100.00;100472.50;4945187;28;20027;-76
2022/01/02 03:25:13;;;;;;;767.75;90.30;;;;;;;6.32;100.00;100465.78;4937511;28;21491;-76
2022/01/02 03:27:41;;;;;;;721.40;85.53;;;;;;;6.33;100.00;100457.41;4943532;28;20032;-76
2022/01/02 03:30:07;;;;;;;613.45;76.45;;;;;;;6.33;100.00;100467.41;4933984;28;20103;-76
2022/01/02 03:32:33;;;;;;;679.03;74.07;;;;;;;6.30;100.00;100467.91;4911004;29;20043;-76
2022/01/02 03:34:58;;;;;;;716.35;85.75;;;;;;;6.19;100.00;100467.81;4925061;29;20058;-76
2022/01/02 03:37:28;;;;;;;735.00;88.55;;;;;;;6.10;100.00;100469.31;4923115;29;20388;-75
2022/01/02 03:39:53;;;;;;;676.33;80.50;;;;;;;6.04;100.00;100467.59;4936506;28;20023;-75
2022/01/02 03:42:19;;;;;;;739.90;85.32;;;;;;;6.02;100.00;100458.09;4947181;28;20121;-76
2022/01/02 03:44:44;;;;;;;731.35;86.85;;;;;;;6.00;100.00;100451.06;4929822;28;20035;-76
2022/01/02 03:47:10;;;;;;;691.83;85.03;;;;;;;6.03;100.00;100452.44;4948761;28;20078;-75
2022/01/02 03:49:35;;;;;;;759.40;91.65;;;;;;;6.03;100.00;100447.03;4931309;29;20031;-76
2022/01/02 03:52:00;;;;;;;749.88;92.03;;;;;;;6.02;100.00;100444.56;4946893;28;20035;-76
2022/01/02 03:54:26;;;;;;;710.80;84.63;;;;;;;5.99;100.00;100441.28;4934017;29;20032;-76
2022/01/02 03:56:54;;;;;;;737.63;85.68;;;;;;;5.98;100.00;100431.56;4946112;28;20388;-76
2022/01/02 03:59:19;;;;;;;779.20;94.78;;;;;;;5.99;100.00;100421.53;4932719;29;20051;-76
2022/01/02 04:01:45;;;;;;;683.00;79.63;;;;;;;6.01;100.00;100408.59;4938039;29;20519;-76
2022/01/02 04:04:10;;;;;;;652.28;79.05;;;;;;;6.04;100.00;100420.78;4945575;28;20036;-76
2022/01/02 04:06:35;;;;;;;748.13;89.50;;;;;;;6.05;100.00;100417.00;4944069;29;20075;-76
2022/01/02 04:09:01;;;;;;;752.58;89.95;;;;;;;6.06;100.00;100402.44;4940676;29;21659;-76
2022/01/02 04:11:26;;;;;;;739.45;89.85;;;;;;;6.07;100.00;100410.28;4944519;28;20031;-76
2022/01/02 04:13:52;;;;;;;682.83;85.55;;;;;;;6.10;100.00;100406.25;4914561;29;20027;-76
2022/01/02 04:16:17;;;;;;;722.63;89.80;;;;;;;6.13;100.00;100401.13;4949322;28;20038;-76
2022/01/02 04:18:42;;;;;;;709.65;84.25;;;;;;;6.16;100.00;100397.91;4944968;28;20436;-76
2022/01/02 04:21:08;;;;;;;721.70;83.15;;;;;;;6.17;100.00;100393.34;4944618;28;20036;-76
2022/01/02 04:23:33;;;;;;;726.10;85.68;;;;;;;6.17;100.00;100372.50;4943350;28;20042;-76
2022/01/02 04:25:59;;;;;;;681.47;85.72;;;;;;;6.19;100.00;100364.09;4946909;29;20031;-76
2022/01/02 04:28:24;;;;;;;718.35;92.65;;;;;;;6.22;100.00;100359.03;4928755;28;20038;-76
2022/01/02 04:30:50;;;;;;;766.97;92.80;;;;;;;6.26;100.00;100364.72;4942311;28;20031;-76
2022/01/02 04:33:15;;;;;;;762.90;93.15;;;;;;;6.30;100.00;100356.91;4936618;29;21376;-76
2022/01/02 04:35:40;;;;;;;658.78;79.28;;;;;;;6.34;100.00;100355.34;4924410;29;20051;-76
2022/01/02 04:38:06;;;;;;;606.25;70.57;;;;;;;6.38;100.00;100351.88;4920515;29;20068;-76
2022/01/02 04:40:31;;;;;;;610.95;69.05;;;;;;;6.44;100.00;100350.84;4929198;29;20031;-75
2022/01/02 04:42:57;;;;;;;650.67;77.22;;;;;;;6.47;100.00;100352.22;4941966;28;20481;-76
2022/01/02 04:45:22;;;;;;;712.50;83.93;;;;;;;6.44;100.00;100344.63;4937717;29;20050;-76
2022/01/02 04:47:50;;;;;;;600.72;71.13;;;;;;;6.41;100.00;100342.38;4947503;28;20479;-76
2022/01/02 04:50:19;;;;;;;692.28;84.20;;;;;;;6.42;100.00;100338.63;4940388;28;20066;-76
2022/01/02 04:52:44;;;;;;;791.28;97.57;;;;;;;6.47;100.00;100333.25;4935179;29;20047;-76
2022/01/02 04:55:10;;;;;;;767.10;95.82;;;;;;;6.52;100.00;100316.22;4945774;28;20023;-76
2022/01/02 04:57:35;;;;;;;786.80;97.85;;;;;;;6.58;100.00;100313.31;4920560;29;20046;-76
2022/01/02 05:00:00;;;;;;;704.15;84.50;;;;;;;6.63;100.00;100318.78;4930601;29;20046;-76
2022/01/02 05:02:26;;;;;;;744.05;93.28;;;;;;;6.67;100.00;100317.16;4947040;28;20039;-76
2022/01/02 05:04:51;;;;;;;730.65;91.50;;;;;;;6.70;100.00;100320.44;4946660;28;20461;-76
2022/01/02 05:07:18;;;;;;;826.17;103.28;;;;;;;6.72;100.00;100312.88;4948694;28;20039;-76
2022/01/02 05:09:43;;;;;;;802.92;100.63;;;;;;;6.73;100.00;100317.22;4947823;28;20090;-76
2022/01/02 05:12:13;;;;;;;773.38;91.93;;;;;;;6.72;100.00;100310.97;4932090;29;20030;-76
2022/01/02 05:14:38;;;;;;;703.70;88.43;;;;;;;6.71;100.00;100305.81;4947770;28;20110;-76
2022/01/02 05:17:03;;;;;;;846.85;102.38;;;;;;;6.69;100.00;100302.56;4947535;28;20035;-76
2022/01/02 05:19:29;;;;;;;823.35;107.55;;;;;;;6.65;100.00;100297.63;4946437;28;20128;-76
2022/01/02 05:21:54;;;;;;;770.78;98.45;;;;;;;6.66;100.00;100295.78;4947554;28;20089;-76
2022/01/02 05:24:21;;;;;;;765.20;95.47;;;;;;;6.67;100.00;100294.69;4947531;28;20047;-77
2022/01/02 05:26:46;;;;;;;788.75;98.88;;;;;;;6.67;100.00;100290.06;4948170;28;20400;-76
2022/01/02 05:29:12;;;;;;;709.83;89.82;;;;;;;6.67;100.00;100295.50;4946839;28;20046;-76
2022/01/02 05:31:37;;;;;;;697.13;85.35;;;;;;;6.69;100.00;100297.16;4947868;28;20023;-76
2022/01/02 05:34:03;;;;;;;703.03;86.70;;;;;;;6.72;100.00;100293.91;4948025;28;20048;-76
2022/01/02 05:36:30;;;;;;;796.47;103.00;;;;;;;6.72;100.00;100281.19;4948999;28;20045;-76
2022/01/02 05:38:56;;;;;;;780.17;95.68;;;;;;;6.71;100.00;100273.31;4946125;28;20019;-76
2022/01/02 05:41:21;;;;;;;788.67;94.53;;;;;;;6.70;100.00;100271.69;4949762;28;20476;-76
2022/01/02 05:43:47;;;;;;;739.22;92.20;;;;;;;6.70;100.00;100258.13;4946428;28;20038;-76
2022/01/02 05:46:12;;;;;;;746.42;93.35;;;;;;;6.70;100.00;100266.25;4947720;28;20035;-76
2022/01/02 05:48:38;;;;;;;702.10;86.38;;;;;;;6.70;100.00;100255.44;4947273;28;20551;-76
2022/01/02 05:51:03;;;;;;;783.42;94.80;;;;;;;6.73;100.00;100254.91;4930948;29;20103;-76
2022/01/02 05:53:29;;;;;;;761.60;94.93;;;;;;;6.74;100.00;100254.66;4929316;28;20031;-77
2022/01/02 05:55:55;;;;;;;711.42;88.70;;;;;;;6.71;100.00;100251.63;4948111;28;20166;-76
2022/01/02 05:58:20;;;;;;;843.47;106.30;;;;;;;6.66;100.00;100253.25;4913473;29;20086;-76
2022/01/02 06:00:46;;;;;;;777.10;94.85;;;;;;;6.64;100.00;100251.88;4931424;28;20495;-77
2022/01/02 06:03:11;;;;;;;789.05;98.15;;;;;;;6.61;100.00;100241.56;4946137;28;20043;-76
2022/01/02 06:05:36;;;;;;;773.35;95.35;;;;;;;6.54;100.00;100239.06;4946815;28;20038;-77
2022/01/02 06:08:02;;;;;;;750.75;93.88;;;;;;;6.49;100.00;100232.78;4946583;28;20023;-77
2022/01/02 06:10:28;;;;;;;729.45;88.85;;;;;;;6.44;100.00;100226.28;4930372;28;20481;-77
2022/01/02 06:12:53;;;;;;;748.92;85.57;;;;;;;6.38;100.00;100231.91;4947255;28;20023;-76
2022/01/02 06:15:18;;;;;;;727.45;85.65;;;;;;;6.32;100.00;100233.75;4928645;29;20488;-77
2022/01/02 06:17:45;;;;;;;728.58;89.88;;;;;;;6.29;100.00;100231.56;4945192;28;20464;-76
2022/01/02 06:20:10;;;;;;;615.80;73.32;;;;;;;6.28;100.00;100231.84;4929864;29;20031;-76
2022/01/02 06:22:36;;;;;;;704.95;84.78;;;;;;;6.26;100.00;100231.28;4946468;28;20138;-76
2022/01/02 06:25:01;;;;;;;743.17;88.20;;;;;;;6.28;100.00;100227.25;4946519;28;20503;-76
2022/01/02 06:27:28;;;;;;;693.50;86.97;;;;;;;6.31;100.00;100209.66;4946242;28;20019;-76
2022/01/02 06:29:53;;;;;;;745.67;91.15;;;;;;;6.34;100.00;100209.16;4945759;28;20039;-76
2022/01/02 06:32:18;;;;;;;794.15;98.32;;;;;;;6.35;100.00;100211.59;4946022;28;20027;-76
2022/01/02 06:34:46;;;;;;;736.63;89.20;;;;;;;6.38;100.00;100210.25;4927728;28;20038;-77
2022/01/02 06:37:11;;;;;;;741.72;91.85;;;;;;;6.42;100.00;100212.19;4946437;28;20038;-77
2022/01/02 06:39:37;;;;;;;745.55;92.60;;;;;;;6.44;100.00;100201.09;4897976;29;20039;-76
2022/01/02 06:42:02;;;;;;;798.33;96.00;;;;;;;6.44;100.00;100203.81;4948331;28;21668;-76
2022/01/02 06:44:28;;;;;;;699.25;87.10;;;;;;;6.45;100.00;100202.72;4926647;28;20049;-77
2022/01/02 06:46:53;;;;;;;698.60;88.72;;;;;;;6.44;100.00;100201.09;4946070;28;20035;-76
2022/01/02 06:49:18;;;;;;;641.65;76.95;;;;;;;6.44;100.00;100198.41;4929203;29;20023;-76
2022/01/02 06:51:44;;;;;;;759.65;104.00;;;;;;;6.43;100.00;100192.16;4929090;28;20714;-77
2022/01/02 06:54:09;;;;;;;765.53;99.15;;;;;;;6.40;100.00;100189.16;4947117;28;20107;-76
2022/01/02 06:56:35;;;;;;;723.88;90.15;;;;;;;6.40;100.00;100191.84;4929402;29;20042;-76
2022/01/02 06:59:00;;;;;;;710.17;90.18;;;;;;;6.40;100.00;100181.03;4925717;28;20511;-76
2022/01/02 07:01:26;;;;;;;766.30;91.60;;;;;;;6.41;100.00;100178.06;4927884;29;20035;-76
2022/01/02 07:03:51;;;;;;;714.65;90.47;;;;;;;6.42;100.00;100178.88;4942610;28;20044;-76
2022/01/02 07:06:17;;;;;;;731.67;89.85;;;;;;;6.41;100.00;100177.22;4924453;28;20035;-76
2022/01/02 07:08:42;;;;;;;892.70;112.72;;;;;;;6.41;100.00;100169.09;4944309;28;20035;-77
2022/01/02 07:11:08;;;;;;;812.70;98.70;;;;;;;6.43;100.00;100159.66;4942629;28;20443;-76
2022/01/02 07:13:34;;;;;;;788.22;100.38;;;;;;;6.44;100.00;100155.06;4938426;28;20051;-77
2022/01/02 07:15:59;;;;;;;860.17;109.50;;;;;;;6.46;100.00;100163.72;4930856;28;20046;-77
2022/01/02 07:18:25;;;;;;;740.95;89.15;;;;;;;6.47;100.00;100153.75;4949456;28;20034;-77
2022/01/02 07:20:50;;;;;;;695.25;86.10;;;;;;;6.50;100.00;100154.03;4936017;29;20461;-77
2022/01/02 07:23:15;;;;;;;804.13;93.93;;;;;;;6.50;100.00;100159.44;4938199;28;20034;-77
2022/01/02 07:25:42;;;;;;;692.22;82.63;;;;;;;6.50;100.00;100164.84;4948821;28;20057;-77
2022/01/02 07:28:08;;;;;;;719.85;86.93;;;;;;;6.48;100.00;100161.59;4929587;28;20039;-77
2022/01/02 07:30:33;;;;;;;758.28;95.65;;;;;;;6.43;100.00;100164.25;4924359;29;20031;-77
2022/01/02 07:33:02;;;;;;;798.50;93.75;;;;;;;6.39;100.00;100157.75;4927479;28;20035;-76
2022/01/02 07:35:31;;;;;;;799.83;94.90;;;;;;;6.36;100.00;100152.88;4935210;29;20392;-77
2022/01/02 07:37:57;;;;;;;656.95;83.72;;;;;;;6.36;100.00;100150.16;4953612;28;20103;-77
2022/01/02 07:40:22;;;;;;;760.42;99.13;;;;;;;6.38;100.00;100139.84;4922930;29;20441;-77
2022/01/02 07:42:48;;;;;;;767.78;94.10;;;;;;;6.37;100.00;100132.81;4919574;28;20035;-77
2022/01/02 07:45:13;;;;;;;848.97;106.95;;;;;;;6.37;100.00;100119.28;4953776;28;20425;-77
2022/01/02 07:47:39;;;;;;;853.60;111.78;;;;;;;6.40;100.00;100127.69;4938836;29;20035;-77
2022/01/02 07:50:05;;;;;;;779.55;99.65;;;;;;;6.42;100.00;100130.16;4956749;28;20035;-77
2022/01/02 07:52:31;;;;;;;767.28;97.43;;;;;;;6.41;100.00;100137.47;4938015;29;20578;-76
2022/01/02 07:54:56;;;;;;;829.75;98.78;;;;;;;6.42;100.00;100130.16;4939752;29;20030;-77
2022/01/02 07:57:22;;;;;;;653.10;81.68;;;;;;;6.39;100.00;100120.66;4937972;29;20031;-75
2022/01/02 07:59:47;;;;;;;729.80;87.63;;;;;;;6.38;100.00;100123.63;4956379;28;20044;-75
2022/01/02 08:02:13;;;;;;;678.22;81.63;;;;;;;6.35;100.00;100118.72;4932420;28;20034;-75
2022/01/02 08:04:38;;;;;;;741.63;93.53;;;;;;;6.35;100.00;100124.13;4953387;28;20385;-75
2022/01/02 08:07:03;;;;;;;773.42;94.18;;;;;;;6.36;100.00;100114.97;4930372;29;20506;-76
2022/01/02 08:09:30;;;;;;;677.03;89.68;;;;;;;6.36;100.00;100121.19;4948262;28;20043;-75
2022/01/02 08:11:55;;;;;;;779.42;95.50;;;;;;;6.37;100.00;100105.75;4920203;29;20027;-75
2022/01/02 08:14:21;;;;;;;792.17;90.63;;;;;;;6.37;100.00;100111.16;4947340;29;20499;-76
2022/01/02 08:16:47;;;;;;;683.95;79.15;;;;;;;6.38;100.00;100110.06;4934351;29;20038;-76
2022/01/02 08:19:12;;;;;;;831.00;102.05;;;;;;;6.42;100.00;100105.78;4935339;28;20023;-75
2022/01/02 08:21:39;;;;;;;781.67;93.53;;;;;;;6.44;100.00;100100.94;4958572;28;20027;-75
2022/01/02 08:24:04;;;;;;;816.75;106.53;;;;;;;6.49;100.00;100100.13;4937028;29;20083;-76
2022/01/02 08:26:30;;;;;;;684.15;87.30;;;;;;;6.51;100.00;100087.13;4940900;28;20030;-76
2022/01/02 08:28:55;;;;;;;716.15;89.65;;;;;;;6.53;100.00;100095.81;4952053;28;20024;-76
2022/01/02 08:31:21;;;;;;;741.65;94.20;;;;;;;6.53;100.00;100104.75;4956551;28;20034;-76
2022/01/02 08:33:46;;;;;;;720.47;94.72;;;;;;;6.54;100.00;100092.03;4951587;28;20034;-76
2022/01/02 08:36:12;;;;;;;713.33;83.35;;;;;;;6.54;100.00;100084.72;4946649;28;20385;-76
2022/01/02 08:38:37;;;;;;;754.80;87.43;;;;;;;6.54;100.00;100076.56;4958149;28;20035;-74
2022/01/02 08:41:02;;;;;;;763.97;96.18;;;;;;;6.53;100.00;100083.09;4937180;28;20038;-76
2022/01/02 08:43:28;;;;;;;744.38;90.10;;;;;;;6.50;100.00;100080.91;4952252;28;20038;-76
2022/01/02 08:45:53;;;;;;;687.03;80.72;;;;;;;6.48;100.00;100080.34;4939235;28;20420;-76
2022/01/02 08:48:20;;;;;;;786.10;94.40;;;;;;;6.45;100.00;100080.88;4949221;28;20039;-75
2022/01/02 08:50:45;;;;;;;748.45;93.10;;;;;;;6.41;100.00;100090.59;4942373;28;20034;-76
2022/01/02 08:53:11;;;;;;;718.17;82.40;;;;;;;6.35;100.00;100088.94;4951631;28;20039;-76
2022/01/02 08:55:36;;;;;;;668.33;83.47;;;;;;;6.33;100.00;100088.38;4925459;28;20065;-76
2022/01/02 08:58:02;;;;;;;812.90;98.30;;;;;;;6.35;100.00;100083.53;4942160;28;20523;-76
2022/01/02 09:00:27;;;;;;;672.83;81.80;;;;;;;6.32;100.00;100081.34;4943797;29;20031;-75
2022/01/02 09:02:53;;;;;;;726.78;85.28;;;;;;;6.30;100.00;100078.94;4952447;28;20039;-75
2022/01/02 09:05:19;;;;;;;736.30;89.63;;;;;;;6.29;100.00;100087.28;4949010;28;20074;-76
2022/01/02 09:07:44;;;;;;;719.20;89.60;;;;;;;6.26;100.00;100083.22;4940370;28;20094;-76
2022/01/02 09:10:10;;;;;;;702.83;83.55;;;;;;;6.28;100.00;100086.50;4958970;28;20030;-75
2022/01/02 09:12:35;;;;;;;635.72;75.43;;;;;;;6.32;100.00;100073.22;4964103;28;20039;-75
2022/01/02 09:15:01;;;;;;;703.28;83.40;;;;;;;6.35;100.00;100075.41;4944442;28;20035;-75
2022/01/02 09:17:26;;;;;;;644.33;79.40;;;;;;;6.36;100.00;100067.03;4948955;28;20027;-75
2022/01/02 09:19:52;;;;;;;557.70;61.28;;;;;;;6.40;100.00;100067.31;4949405;29;20495;-75
2022/01/02 09:22:18;;;;;;;491.85;57.55;;;;;;;6.42;100.00;100076.00;4951019;28;20034;-75
2022/01/02 09:24:44;;;;;;;568.75;65.88;;;;;;;6.43;100.00;100064.09;4961534;28;20023;-75
2022/01/02 09:27:09;;;;;;;543.83;60.30;;;;;;;6.42;100.00;100065.16;4949012;28;20035;-75
2022/01/02 09:29:35;;;;;;;614.83;68.25;;;;;;;6.40;100.00;100062.72;4942535;28;20031;-76
2022/01/02 09:32:01;;;;;;;631.75;73.47;;;;;;;6.36;100.00;100063.53;4921048;29;20477;-75
2022/01/02 09:34:26;;;;;;;599.40;74.20;;;;;;;6.32;100.00;100055.09;4951688;28;20060;-75
2022/01/02 09:36:53;;;;;;;607.85;73.30;;;;;;;6.31;100.00;100067.00;4948222;28;20020;-75
2022/01/02 09:39:18;;;;;;;559.92;64.43;;;;;;;6.32;100.00;100060.50;4950351;28;20416;-75
2022/01/02 09:41:44;;;;;;;550.67;67.05;;;;;;;6.33;100.00;100061.31;4939682;28;20045;-75
2022/01/02 09:44:09;;;;;;;678.75;80.75;;;;;;;6.34;100.00;100057.56;4935888;28;20068;-75
2022/01/02 09:46:34;;;;;;;550.53;67.28;;;;;;;6.36;100.00;100047.28;4933160;28;20032;-76
2022/01/02 09:49:00;;;;;;;589.78;66.88;;;;;;;6.37;100.00;100040.78;4921719;29;20031;-76
2022/01/02 09:51:26;;;;;;;455.63;52.88;;;;;;;6.41;100.00;100041.88;4921350;29;20027;-74
2022/01/02 09:53:52;;;;;;;584.80;65.13;;;;;;;6.44;100.00;100041.34;4953803;28;20079;-74
2022/01/02 09:56:18;;;;;;;668.97;84.88;;;;;;;6.41;100.00;100047.28;4936172;28;20031;-74
2022/01/02 09:58:44;;;;;;;647.42;76.15;;;;;;;6.38;100.00;100031.56;4937174;28;20070;-74
2022/01/02 10:01:20;;;;;;;685.00;80.18;;;;;;;6.37;100.00;100022.63;4939072;29;20110;-74
2022/01/02 10:03:50;;;;;;;507.35;63.40;;;;;;;6.38;100.00;100016.16;4956673;28;20031;-75
2022/01/02 10:06:16;;;;;;;438.55;56.60;;;;;;;6.42;100.00;100016.44;4938783;28;20023;-74
2022/01/02 10:08:43;;;;;;;207.73;31.48;;;;;;;6.44;100.00;100017.00;4916471;28;20042;-74
2022/01/02 10:11:12;;;;;;;188.32;31.75;;;;;;;6.46;100.00;100014.81;4946927;28;20062;-74
2022/01/02 10:13:48;;;;;;;229.90;35.00;;;;;;;6.49;100.00;100022.41;4932771;28;20086;-74
2022/01/02 10:16:41;;;;;;;173.85;28.40;;;;;;;6.47;100.00;100019.16;4958126;28;20051;-74
2022/01/02 10:19:26;;;;;;;141.77;25.48;;;;;;;6.43;100.00;100021.56;4952156;28;20049;-75
2022/01/02 10:22:05;;;;;;;112.75;25.27;;;;;;;6.43;100.00;100028.88;4954281;28;20035;-75
2022/01/02 10:24:31;;;;;;;116.50;24.58;;;;;;;6.40;100.00;100024.00;4958039;28;20113;-75
2022/01/02 10:27:22;;;;;;;106.25;21.15;;;;;;;6.40;100.00;100024.00;4957585;28;20477;-75
2022/01/02 10:29:50;;;;;;;167.02;26.33;;;;;;;6.39;100.00;100019.69;4938798;28;20031;-75
2022/01/02 10:32:24;;;;;;;365.98;47.28;;;;;;;6.40;100.00;100013.16;4958515;28;20039;-75
2022/01/02 10:34:50;;;;;;;319.33;42.13;;;;;;;6.38;100.00;100004.50;4953876;28;20515;-75
2022/01/02 10:37:25;;;;;;;314.77;38.28;;;;;;;6.41;100.00;100012.06;4932224;29;20110;-75
2022/01/02 10:39:50;;;;;;;266.13;36.30;;;;;;;6.45;100.00;100002.38;4947082;28;20086;-76
2022/01/02 10:42:17;;;;;;;252.88;33.38;;;;;;;6.50;100.00;100001.56;4953995;28;20031;-76
2022/01/02 10:44:42;;;;;;;354.17;41.25;;;;;;;6.51;100.00;99986.94;4940357;29;20020;-76
2022/01/02 10:47:16;;;;;;;211.38;31.42;;;;;;;6.49;100.00;99986.38;4953946;28;20085;-76
2022/01/02 10:50:08;;;;;;;177.52;28.45;;;;;;;6.53;100.00;99988.31;4933944;28;20115;-76
2022/01/02 10:52:45;;;;;;;144.63;27.63;;;;;;;6.62;100.00;99989.41;4915296;28;20484;-77
2022/01/02 10:55:19;;;;;;;183.63;26.27;;;;;;;6.67;100.00;99969.66;4957396;28;20260;-77
2022/01/02 10:57:47;;;;;;;126.35;22.33;;;;;;;6.70;100.00;99963.69;4950322;28;20033;-77
2022/01/02 11:00:13;;;;;;;132.38;23.65;;;;;;;6.71;100.00;99975.34;4917794;29;20495;-76
2022/01/02 11:02:39;;;;;;;101.63;21.45;;;;;;;6.71;100.00;99967.22;4939010;29;20493;-76
2022/01/02 11:05:06;;;;;;;108.72;22.20;;;;;;;6.69;100.00;99947.72;4930791;29;20039;-77
2022/01/02 11:07:42;;;;;;;72.20;19.30;;;;;;;6.72;100.00;99928.22;4915826;29;20103;-77
2022/01/02 11:10:09;;;;;;;85.53;18.23;;;;;;;6.79;100.00;99913.34;4941573;29;20492;-77